sensor_id;sensor_type;location;lat;lon;timestamp;P1;durP1;ratioP1;P2;durP2;ratioP2
25125;SDS011;13106;50.808;5.670;2023-07-02T00:01:02;18.80;;;9.15;;
25125;SDS011;13106;50.808;5.670;2023-07-02T00:03:28;19.65;;;9.35;;
25125;SDS011;13106;50.808;5.670;2023-07-02T00:05:54;24.42;;;10.32;;
25125;SDS011;13106;50.808;5.670;2023-07-02T00:08:21;20.73;;;9.10;;
25125;SDS011;13106;50.808;5.670;2023-07-02T00:10:47;19.27;;;9.15;;
25125;SDS011;13106;50.808;5.670;2023-07-02T00:13:14;20.23;;;9.27;;
25125;SDS011;13106;50.808;5.670;2023-07-02T00:15:40;20.83;;;10.57;;
25125;SDS011;13106;50.808;5.670;2023-07-02T00:18:06;19.67;;;10.50;;
25125;SDS011;13106;50.808;5.670;2023-07-02T00:20:33;21.80;;;10.38;;
25125;SDS011;13106;50.808;5.670;2023-07-02T00:23:05;21.33;;;10.02;;
25125;SDS011;13106;50.808;5.670;2023-07-02T00:25:33;27.77;;;10.82;;
25125;SDS011;13106;50.808;5.670;2023-07-02T00:27:59;22.00;;;10.07;;
25125;SDS011;13106;50.808;5.670;2023-07-02T00:30:26;26.10;;;11.52;;
25125;SDS011;13106;50.808;5.670;2023-07-02T00:32:52;25.92;;;10.98;;
25125;SDS011;13106;50.808;5.670;2023-07-02T00:35:18;24.67;;;10.93;;
25125;SDS011;13106;50.808;5.670;2023-07-02T00:37:44;22.73;;;10.25;;
25125;SDS011;13106;50.808;5.670;2023-07-02T00:40:10;27.27;;;12.07;;
25125;SDS011;13106;50.808;5.670;2023-07-02T00:42:36;30.95;;;12.02;;
25125;SDS011;13106;50.808;5.670;2023-07-02T00:45:02;23.45;;;11.70;;
25125;SDS011;13106;50.808;5.670;2023-07-02T00:47:29;24.70;;;11.68;;
25125;SDS011;13106;50.808;5.670;2023-07-02T00:49:56;29.90;;;12.25;;
25125;SDS011;13106;50.808;5.670;2023-07-02T00:52:22;23.08;;;11.85;;
25125;SDS011;13106;50.808;5.670;2023-07-02T00:54:50;26.95;;;11.38;;
25125;SDS011;13106;50.808;5.670;2023-07-02T00:57:17;31.15;;;12.93;;
25125;SDS011;13106;50.808;5.670;2023-07-02T00:59:43;28.35;;;12.63;;
25125;SDS011;13106;50.808;5.670;2023-07-02T01:02:09;25.88;;;13.02;;
25125;SDS011;13106;50.808;5.670;2023-07-02T01:04:35;30.63;;;12.90;;
25125;SDS011;13106;50.808;5.670;2023-07-02T01:07:02;27.40;;;13.20;;
25125;SDS011;13106;50.808;5.670;2023-07-02T01:09:33;25.95;;;11.77;;
25125;SDS011;13106;50.808;5.670;2023-07-02T01:12:00;26.02;;;12.90;;
25125;SDS011;13106;50.808;5.670;2023-07-02T01:14:31;31.13;;;12.68;;
25125;SDS011;13106;50.808;5.670;2023-07-02T01:16:59;30.50;;;13.00;;
25125;SDS011;13106;50.808;5.670;2023-07-02T01:19:46;25.15;;;12.93;;
25125;SDS011;13106;50.808;5.670;2023-07-02T01:22:19;27.58;;;13.35;;
25125;SDS011;13106;50.808;5.670;2023-07-02T01:24:45;26.77;;;13.27;;
25125;SDS011;13106;50.808;5.670;2023-07-02T01:27:13;31.40;;;13.07;;
25125;SDS011;13106;50.808;5.670;2023-07-02T01:29:40;25.38;;;13.02;;
25125;SDS011;13106;50.808;5.670;2023-07-02T01:32:06;30.95;;;13.75;;
25125;SDS011;13106;50.808;5.670;2023-07-02T01:34:33;30.38;;;12.95;;
25125;SDS011;13106;50.808;5.670;2023-07-02T01:36:59;29.20;;;14.05;;
25125;SDS011;13106;50.808;5.670;2023-07-02T01:39:25;29.35;;;13.23;;
25125;SDS011;13106;50.808;5.670;2023-07-02T01:41:52;30.88;;;14.43;;
25125;SDS011;13106;50.808;5.670;2023-07-02T01:44:19;29.85;;;13.38;;
25125;SDS011;13106;50.808;5.670;2023-07-02T01:46:45;28.02;;;13.52;;
25125;SDS011;13106;50.808;5.670;2023-07-02T01:49:14;30.38;;;14.52;;
25125;SDS011;13106;50.808;5.670;2023-07-02T01:51:40;33.22;;;14.30;;
25125;SDS011;13106;50.808;5.670;2023-07-02T01:54:06;29.98;;;13.75;;
25125;SDS011;13106;50.808;5.670;2023-07-02T01:56:32;29.52;;;14.18;;
25125;SDS011;13106;50.808;5.670;2023-07-02T01:58:58;28.95;;;14.25;;
25125;SDS011;13106;50.808;5.670;2023-07-02T02:01:24;31.50;;;13.57;;
25125;SDS011;13106;50.808;5.670;2023-07-02T02:03:50;27.55;;;13.75;;
25125;SDS011;13106;50.808;5.670;2023-07-02T02:06:16;31.48;;;14.32;;
25125;SDS011;13106;50.808;5.670;2023-07-02T02:08:42;31.60;;;14.05;;
25125;SDS011;13106;50.808;5.670;2023-07-02T02:11:08;32.38;;;14.65;;
25125;SDS011;13106;50.808;5.670;2023-07-02T02:13:34;34.63;;;14.27;;
25125;SDS011;13106;50.808;5.670;2023-07-02T02:16:00;31.63;;;13.93;;
25125;SDS011;13106;50.808;5.670;2023-07-02T02:18:26;28.27;;;14.45;;
25125;SDS011;13106;50.808;5.670;2023-07-02T02:20:52;30.83;;;14.25;;
25125;SDS011;13106;50.808;5.670;2023-07-02T02:23:18;30.30;;;14.88;;
25125;SDS011;13106;50.808;5.670;2023-07-02T02:25:44;34.08;;;15.88;;
25125;SDS011;13106;50.808;5.670;2023-07-02T02:28:10;30.77;;;15.50;;
25125;SDS011;13106;50.808;5.670;2023-07-02T02:30:37;34.58;;;16.02;;
25125;SDS011;13106;50.808;5.670;2023-07-02T02:33:03;34.13;;;15.20;;
25125;SDS011;13106;50.808;5.670;2023-07-02T02:35:29;36.75;;;16.33;;
25125;SDS011;13106;50.808;5.670;2023-07-02T02:37:55;34.55;;;15.77;;
25125;SDS011;13106;50.808;5.670;2023-07-02T02:40:21;37.08;;;16.67;;
25125;SDS011;13106;50.808;5.670;2023-07-02T02:42:47;41.15;;;19.90;;
25125;SDS011;13106;50.808;5.670;2023-07-02T02:45:13;41.00;;;20.02;;
25125;SDS011;13106;50.808;5.670;2023-07-02T02:47:39;43.17;;;17.73;;
25125;SDS011;13106;50.808;5.670;2023-07-02T02:50:05;35.78;;;16.17;;
25125;SDS011;13106;50.808;5.670;2023-07-02T02:52:31;35.45;;;15.93;;
25125;SDS011;13106;50.808;5.670;2023-07-02T02:54:58;33.28;;;17.38;;
25125;SDS011;13106;50.808;5.670;2023-07-02T02:57:25;39.90;;;17.20;;
25125;SDS011;13106;50.808;5.670;2023-07-02T02:59:50;35.80;;;17.27;;
25125;SDS011;13106;50.808;5.670;2023-07-02T03:02:16;33.78;;;18.23;;
25125;SDS011;13106;50.808;5.670;2023-07-02T03:04:42;39.42;;;21.20;;
25125;SDS011;13106;50.808;5.670;2023-07-02T03:07:09;38.42;;;17.55;;
25125;SDS011;13106;50.808;5.670;2023-07-02T03:09:35;41.40;;;18.85;;
25125;SDS011;13106;50.808;5.670;2023-07-02T03:12:01;34.88;;;16.95;;
25125;SDS011;13106;50.808;5.670;2023-07-02T03:14:27;40.10;;;18.15;;
25125;SDS011;13106;50.808;5.670;2023-07-02T03:16:53;39.85;;;18.52;;
25125;SDS011;13106;50.808;5.670;2023-07-02T03:19:19;34.28;;;17.33;;
25125;SDS011;13106;50.808;5.670;2023-07-02T03:21:45;38.03;;;18.10;;
25125;SDS011;13106;50.808;5.670;2023-07-02T03:24:11;40.90;;;18.85;;
25125;SDS011;13106;50.808;5.670;2023-07-02T03:26:39;38.42;;;18.20;;
25125;SDS011;13106;50.808;5.670;2023-07-02T03:29:05;40.30;;;18.52;;
25125;SDS011;13106;50.808;5.670;2023-07-02T03:31:32;41.05;;;19.42;;
25125;SDS011;13106;50.808;5.670;2023-07-02T03:33:59;45.85;;;18.50;;
25125;SDS011;13106;50.808;5.670;2023-07-02T03:36:25;39.35;;;18.30;;
25125;SDS011;13106;50.808;5.670;2023-07-02T03:38:51;44.95;;;20.63;;
25125;SDS011;13106;50.808;5.670;2023-07-02T03:41:17;41.83;;;19.45;;
25125;SDS011;13106;50.808;5.670;2023-07-02T03:43:43;42.25;;;19.85;;
25125;SDS011;13106;50.808;5.670;2023-07-02T03:46:09;39.63;;;18.95;;
25125;SDS011;13106;50.808;5.670;2023-07-02T03:48:35;47.00;;;19.05;;
25125;SDS011;13106;50.808;5.670;2023-07-02T03:51:01;45.00;;;18.58;;
25125;SDS011;13106;50.808;5.670;2023-07-02T03:53:28;47.65;;;20.75;;
25125;SDS011;13106;50.808;5.670;2023-07-02T03:55:54;43.58;;;18.98;;
25125;SDS011;13106;50.808;5.670;2023-07-02T03:58:20;39.60;;;20.73;;
25125;SDS011;13106;50.808;5.670;2023-07-02T04:00:46;42.70;;;22.35;;
25125;SDS011;13106;50.808;5.670;2023-07-02T04:03:14;47.83;;;20.00;;
25125;SDS011;13106;50.808;5.670;2023-07-02T04:05:40;46.90;;;20.42;;
25125;SDS011;13106;50.808;5.670;2023-07-02T04:08:07;48.55;;;20.20;;
25125;SDS011;13106;50.808;5.670;2023-07-02T04:10:33;46.33;;;20.38;;
25125;SDS011;13106;50.808;5.670;2023-07-02T04:12:59;47.08;;;20.75;;
25125;SDS011;13106;50.808;5.670;2023-07-02T04:15:25;45.38;;;20.70;;
25125;SDS011;13106;50.808;5.670;2023-07-02T04:17:52;43.85;;;21.00;;
25125;SDS011;13106;50.808;5.670;2023-07-02T04:20:18;41.28;;;20.50;;
25125;SDS011;13106;50.808;5.670;2023-07-02T04:22:45;48.00;;;20.85;;
25125;SDS011;13106;50.808;5.670;2023-07-02T04:25:11;43.70;;;20.75;;
25125;SDS011;13106;50.808;5.670;2023-07-02T04:27:40;40.63;;;19.67;;
25125;SDS011;13106;50.808;5.670;2023-07-02T04:30:07;48.80;;;20.75;;
25125;SDS011;13106;50.808;5.670;2023-07-02T04:32:33;49.67;;;20.58;;
25125;SDS011;13106;50.808;5.670;2023-07-02T04:34:59;40.90;;;19.92;;
25125;SDS011;13106;50.808;5.670;2023-07-02T04:37:25;45.00;;;21.98;;
25125;SDS011;13106;50.808;5.670;2023-07-02T04:39:53;41.00;;;20.92;;
25125;SDS011;13106;50.808;5.670;2023-07-02T04:42:19;49.65;;;20.80;;
25125;SDS011;13106;50.808;5.670;2023-07-02T04:44:45;52.25;;;25.02;;
25125;SDS011;13106;50.808;5.670;2023-07-02T04:47:11;46.38;;;21.77;;
25125;SDS011;13106;50.808;5.670;2023-07-02T04:49:38;51.83;;;21.30;;
25125;SDS011;13106;50.808;5.670;2023-07-02T04:52:04;43.40;;;20.33;;
25125;SDS011;13106;50.808;5.670;2023-07-02T04:54:30;45.67;;;21.15;;
25125;SDS011;13106;50.808;5.670;2023-07-02T04:56:56;48.42;;;21.35;;
25125;SDS011;13106;50.808;5.670;2023-07-02T04:59:23;51.65;;;21.23;;
25125;SDS011;13106;50.808;5.670;2023-07-02T05:01:50;48.40;;;22.05;;
25125;SDS011;13106;50.808;5.670;2023-07-02T05:04:16;55.72;;;22.65;;
25125;SDS011;13106;50.808;5.670;2023-07-02T05:06:42;46.30;;;21.75;;
25125;SDS011;13106;50.808;5.670;2023-07-02T05:09:08;46.95;;;20.92;;
25125;SDS011;13106;50.808;5.670;2023-07-02T05:11:34;55.10;;;22.85;;
25125;SDS011;13106;50.808;5.670;2023-07-02T05:14:00;54.42;;;21.63;;
25125;SDS011;13106;50.808;5.670;2023-07-02T05:16:26;46.33;;;21.52;;
25125;SDS011;13106;50.808;5.670;2023-07-02T05:18:52;57.53;;;22.15;;
25125;SDS011;13106;50.808;5.670;2023-07-02T05:21:18;50.45;;;21.83;;
25125;SDS011;13106;50.808;5.670;2023-07-02T05:23:44;51.65;;;22.23;;
25125;SDS011;13106;50.808;5.670;2023-07-02T05:26:10;49.55;;;22.33;;
25125;SDS011;13106;50.808;5.670;2023-07-02T05:28:36;47.90;;;22.65;;
25125;SDS011;13106;50.808;5.670;2023-07-02T05:31:02;46.08;;;20.95;;
25125;SDS011;13106;50.808;5.670;2023-07-02T05:33:28;48.67;;;21.20;;
25125;SDS011;13106;50.808;5.670;2023-07-02T05:35:57;50.55;;;22.75;;
25125;SDS011;13106;50.808;5.670;2023-07-02T05:38:23;49.42;;;22.65;;
25125;SDS011;13106;50.808;5.670;2023-07-02T05:40:49;52.80;;;23.75;;
25125;SDS011;13106;50.808;5.670;2023-07-02T05:43:16;51.72;;;22.80;;
25125;SDS011;13106;50.808;5.670;2023-07-02T05:45:42;46.40;;;21.58;;
25125;SDS011;13106;50.808;5.670;2023-07-02T05:48:08;50.63;;;22.13;;
25125;SDS011;13106;50.808;5.670;2023-07-02T05:50:34;52.58;;;21.65;;
25125;SDS011;13106;50.808;5.670;2023-07-02T05:53:00;51.03;;;23.30;;
25125;SDS011;13106;50.808;5.670;2023-07-02T05:55:26;50.53;;;24.48;;
25125;SDS011;13106;50.808;5.670;2023-07-02T05:57:52;55.28;;;22.42;;
25125;SDS011;13106;50.808;5.670;2023-07-02T06:00:18;55.72;;;23.73;;
25125;SDS011;13106;50.808;5.670;2023-07-02T06:02:46;50.72;;;22.40;;
25125;SDS011;13106;50.808;5.670;2023-07-02T06:05:13;57.05;;;24.25;;
25125;SDS011;13106;50.808;5.670;2023-07-02T06:07:39;51.88;;;22.63;;
25125;SDS011;13106;50.808;5.670;2023-07-02T06:10:05;52.78;;;22.05;;
25125;SDS011;13106;50.808;5.670;2023-07-02T06:12:31;53.88;;;22.83;;
25125;SDS011;13106;50.808;5.670;2023-07-02T06:14:57;51.22;;;23.20;;
25125;SDS011;13106;50.808;5.670;2023-07-02T06:17:23;58.88;;;23.00;;
25125;SDS011;13106;50.808;5.670;2023-07-02T06:19:50;52.88;;;22.65;;
25125;SDS011;13106;50.808;5.670;2023-07-02T06:22:16;49.90;;;23.60;;
25125;SDS011;13106;50.808;5.670;2023-07-02T06:24:42;50.92;;;22.77;;
25125;SDS011;13106;50.808;5.670;2023-07-02T06:27:08;48.42;;;22.60;;
25125;SDS011;13106;50.808;5.670;2023-07-02T06:29:34;50.70;;;21.90;;
25125;SDS011;13106;50.808;5.670;2023-07-02T06:32:00;50.75;;;22.58;;
25125;SDS011;13106;50.808;5.670;2023-07-02T06:34:26;54.55;;;23.00;;
25125;SDS011;13106;50.808;5.670;2023-07-02T06:36:52;46.78;;;21.55;;
25125;SDS011;13106;50.808;5.670;2023-07-02T06:39:18;55.00;;;23.42;;
25125;SDS011;13106;50.808;5.670;2023-07-02T06:41:44;56.05;;;23.33;;
25125;SDS011;13106;50.808;5.670;2023-07-02T06:44:10;54.47;;;23.58;;
25125;SDS011;13106;50.808;5.670;2023-07-02T06:46:37;54.00;;;23.27;;
25125;SDS011;13106;50.808;5.670;2023-07-02T06:49:03;55.13;;;23.83;;
25125;SDS011;13106;50.808;5.670;2023-07-02T06:51:29;52.55;;;24.33;;
25125;SDS011;13106;50.808;5.670;2023-07-02T06:53:55;55.28;;;23.58;;
25125;SDS011;13106;50.808;5.670;2023-07-02T06:56:21;50.15;;;22.80;;
25125;SDS011;13106;50.808;5.670;2023-07-02T06:58:47;48.40;;;24.73;;
25125;SDS011;13106;50.808;5.670;2023-07-02T07:01:13;50.13;;;21.50;;
25125;SDS011;13106;50.808;5.670;2023-07-02T07:03:39;50.35;;;23.13;;
25125;SDS011;13106;50.808;5.670;2023-07-02T07:06:05;51.45;;;21.95;;
25125;SDS011;13106;50.808;5.670;2023-07-02T07:08:31;49.28;;;23.23;;
25125;SDS011;13106;50.808;5.670;2023-07-02T07:10:57;47.28;;;21.88;;
25125;SDS011;13106;50.808;5.670;2023-07-02T07:13:23;46.03;;;22.50;;
25125;SDS011;13106;50.808;5.670;2023-07-02T07:15:49;54.00;;;24.58;;
25125;SDS011;13106;50.808;5.670;2023-07-02T07:18:15;45.90;;;23.55;;
25125;SDS011;13106;50.808;5.670;2023-07-02T07:20:43;46.75;;;24.17;;
25125;SDS011;13106;50.808;5.670;2023-07-02T07:23:09;54.10;;;23.90;;
25125;SDS011;13106;50.808;5.670;2023-07-02T07:25:35;49.58;;;22.35;;
25125;SDS011;13106;50.808;5.670;2023-07-02T07:28:01;53.45;;;23.58;;
25125;SDS011;13106;50.808;5.670;2023-07-02T07:30:27;46.83;;;23.42;;
25125;SDS011;13106;50.808;5.670;2023-07-02T07:32:53;48.17;;;23.67;;
25125;SDS011;13106;50.808;5.670;2023-07-02T07:35:20;43.78;;;21.35;;
25125;SDS011;13106;50.808;5.670;2023-07-02T07:37:46;52.13;;;22.08;;
25125;SDS011;13106;50.808;5.670;2023-07-02T07:40:13;43.92;;;21.05;;
25125;SDS011;13106;50.808;5.670;2023-07-02T07:42:39;51.03;;;21.85;;
25125;SDS011;13106;50.808;5.670;2023-07-02T07:45:06;50.83;;;22.08;;
25125;SDS011;13106;50.808;5.670;2023-07-02T07:47:32;54.58;;;21.95;;
25125;SDS011;13106;50.808;5.670;2023-07-02T07:49:58;43.92;;;21.83;;
25125;SDS011;13106;50.808;5.670;2023-07-02T07:52:24;39.22;;;21.73;;
25125;SDS011;13106;50.808;5.670;2023-07-02T07:54:50;45.30;;;22.10;;
25125;SDS011;13106;50.808;5.670;2023-07-02T07:57:17;44.17;;;21.52;;
25125;SDS011;13106;50.808;5.670;2023-07-02T07:59:43;45.25;;;21.27;;
25125;SDS011;13106;50.808;5.670;2023-07-02T08:02:09;42.92;;;19.40;;
25125;SDS011;13106;50.808;5.670;2023-07-02T08:04:35;44.10;;;21.35;;
25125;SDS011;13106;50.808;5.670;2023-07-02T08:07:01;50.13;;;23.23;;
25125;SDS011;13106;50.808;5.670;2023-07-02T08:09:29;40.78;;;20.10;;
25125;SDS011;13106;50.808;5.670;2023-07-02T08:11:55;40.28;;;20.98;;
25125;SDS011;13106;50.808;5.670;2023-07-02T08:14:21;42.58;;;20.83;;
25125;SDS011;13106;50.808;5.670;2023-07-02T08:16:47;42.58;;;20.40;;
25125;SDS011;13106;50.808;5.670;2023-07-02T08:19:13;54.05;;;22.23;;
25125;SDS011;13106;50.808;5.670;2023-07-02T08:21:39;45.35;;;21.27;;
25125;SDS011;13106;50.808;5.670;2023-07-02T08:24:05;42.28;;;20.20;;
25125;SDS011;13106;50.808;5.670;2023-07-02T08:26:31;42.97;;;20.75;;
25125;SDS011;13106;50.808;5.670;2023-07-02T08:28:57;42.88;;;20.02;;
25125;SDS011;13106;50.808;5.670;2023-07-02T08:31:23;44.28;;;20.10;;
25125;SDS011;13106;50.808;5.670;2023-07-02T08:33:49;41.75;;;20.25;;
25125;SDS011;13106;50.808;5.670;2023-07-02T08:36:15;42.22;;;19.83;;
25125;SDS011;13106;50.808;5.670;2023-07-02T08:38:42;38.88;;;18.63;;
25125;SDS011;13106;50.808;5.670;2023-07-02T08:41:08;43.55;;;20.60;;
25125;SDS011;13106;50.808;5.670;2023-07-02T08:43:34;38.85;;;18.08;;
25125;SDS011;13106;50.808;5.670;2023-07-02T08:46:01;39.47;;;17.90;;
25125;SDS011;13106;50.808;5.670;2023-07-02T08:48:28;41.05;;;17.60;;
25125;SDS011;13106;50.808;5.670;2023-07-02T08:50:55;32.75;;;16.90;;
25125;SDS011;13106;50.808;5.670;2023-07-02T08:53:21;36.80;;;18.55;;
25125;SDS011;13106;50.808;5.670;2023-07-02T08:55:54;39.00;;;16.83;;
25125;SDS011;13106;50.808;5.670;2023-07-02T08:58:24;38.80;;;17.27;;
25125;SDS011;13106;50.808;5.670;2023-07-02T09:01:12;35.42;;;17.25;;
25125;SDS011;13106;50.808;5.670;2023-07-02T09:03:37;33.70;;;15.93;;
25125;SDS011;13106;50.808;5.670;2023-07-02T09:06:04;31.52;;;15.52;;
25125;SDS011;13106;50.808;5.670;2023-07-02T09:08:30;31.50;;;14.85;;
25125;SDS011;13106;50.808;5.670;2023-07-02T09:11:31;27.70;;;14.85;;
25125;SDS011;13106;50.808;5.670;2023-07-02T09:13:51;31.42;;;14.90;;
25125;SDS011;13106;50.808;5.670;2023-07-02T09:19:10;34.95;;;16.42;;
25125;SDS011;13106;50.808;5.670;2023-07-02T09:24:20;36.30;;;15.52;;
25125;SDS011;13106;50.808;5.670;2023-07-02T09:26:50;34.55;;;15.55;;
25125;SDS011;13106;50.808;5.670;2023-07-02T09:29:26;33.03;;;15.02;;
25125;SDS011;13106;50.808;5.670;2023-07-02T09:32:00;37.00;;;15.50;;
25125;SDS011;13106;50.808;5.670;2023-07-02T09:34:36;31.65;;;14.88;;
25125;SDS011;13106;50.808;5.670;2023-07-02T09:37:02;32.65;;;14.30;;
25125;SDS011;13106;50.808;5.670;2023-07-02T09:39:30;34.45;;;15.23;;
25125;SDS011;13106;50.808;5.670;2023-07-02T09:41:57;28.13;;;13.50;;
25125;SDS011;13106;50.808;5.670;2023-07-02T09:44:30;29.92;;;14.00;;
25125;SDS011;13106;50.808;5.670;2023-07-02T09:47:07;32.28;;;15.20;;
25125;SDS011;13106;50.808;5.670;2023-07-02T09:49:34;33.60;;;13.95;;
25125;SDS011;13106;50.808;5.670;2023-07-02T09:52:01;30.25;;;13.80;;
25125;SDS011;13106;50.808;5.670;2023-07-02T09:54:28;33.97;;;13.85;;
25125;SDS011;13106;50.808;5.670;2023-07-02T09:56:56;33.38;;;14.02;;
25125;SDS011;13106;50.808;5.670;2023-07-02T09:59:22;23.50;;;11.02;;
25125;SDS011;13106;50.808;5.670;2023-07-02T10:01:49;29.10;;;12.68;;
25125;SDS011;13106;50.808;5.670;2023-07-02T10:04:16;28.30;;;13.63;;
25125;SDS011;13106;50.808;5.670;2023-07-02T10:06:49;34.55;;;13.77;;
25125;SDS011;13106;50.808;5.670;2023-07-02T10:09:16;34.38;;;12.77;;
25125;SDS011;13106;50.808;5.670;2023-07-02T10:11:42;21.83;;;10.80;;
25125;SDS011;13106;50.808;5.670;2023-07-02T10:14:08;24.67;;;10.80;;
25125;SDS011;13106;50.808;5.670;2023-07-02T10:16:34;20.60;;;10.30;;
25125;SDS011;13106;50.808;5.670;2023-07-02T10:19:10;19.95;;;10.23;;
25125;SDS011;13106;50.808;5.670;2023-07-02T10:21:36;22.98;;;10.27;;
25125;SDS011;13106;50.808;5.670;2023-07-02T10:24:15;22.90;;;10.75;;
25125;SDS011;13106;50.808;5.670;2023-07-02T10:29:22;19.55;;;9.80;;
25125;SDS011;13106;50.808;5.670;2023-07-02T10:31:56;21.45;;;9.95;;
25125;SDS011;13106;50.808;5.670;2023-07-02T10:34:32;21.77;;;10.07;;
25125;SDS011;13106;50.808;5.670;2023-07-02T10:37:00;20.77;;;9.88;;
25125;SDS011;13106;50.808;5.670;2023-07-02T10:39:26;25.63;;;9.48;;
25125;SDS011;13106;50.808;5.670;2023-07-02T10:41:52;24.95;;;10.90;;
25125;SDS011;13106;50.808;5.670;2023-07-02T10:44:18;23.48;;;9.55;;
25125;SDS011;13106;50.808;5.670;2023-07-02T10:46:47;23.27;;;10.82;;
25125;SDS011;13106;50.808;5.670;2023-07-02T10:49:14;25.88;;;9.85;;
25125;SDS011;13106;50.808;5.670;2023-07-02T10:51:40;20.13;;;10.27;;
25125;SDS011;13106;50.808;5.670;2023-07-02T10:54:06;25.95;;;10.13;;
25125;SDS011;13106;50.808;5.670;2023-07-02T10:56:32;26.40;;;9.90;;
25125;SDS011;13106;50.808;5.670;2023-07-02T10:58:58;22.48;;;9.70;;
25125;SDS011;13106;50.808;5.670;2023-07-02T11:01:29;21.92;;;10.55;;
25125;SDS011;13106;50.808;5.670;2023-07-02T11:04:04;23.88;;;10.35;;
25125;SDS011;13106;50.808;5.670;2023-07-02T11:06:31;23.23;;;9.55;;
25125;SDS011;13106;50.808;5.670;2023-07-02T11:08:58;20.45;;;9.85;;
25125;SDS011;13106;50.808;5.670;2023-07-02T11:11:24;21.15;;;9.73;;
25125;SDS011;13106;50.808;5.670;2023-07-02T11:13:51;24.58;;;10.55;;
25125;SDS011;13106;50.808;5.670;2023-07-02T11:16:18;23.00;;;10.63;;
25125;SDS011;13106;50.808;5.670;2023-07-02T11:18:45;22.27;;;9.63;;
25125;SDS011;13106;50.808;5.670;2023-07-02T11:21:11;21.10;;;9.93;;
25125;SDS011;13106;50.808;5.670;2023-07-02T11:23:37;22.10;;;10.00;;
25125;SDS011;13106;50.808;5.670;2023-07-02T11:26:03;21.08;;;9.65;;
25125;SDS011;13106;50.808;5.670;2023-07-02T11:28:30;20.92;;;9.82;;
25125;SDS011;13106;50.808;5.670;2023-07-02T11:30:57;24.63;;;10.52;;
25125;SDS011;13106;50.808;5.670;2023-07-02T11:33:35;19.15;;;9.82;;
25125;SDS011;13106;50.808;5.670;2023-07-02T11:36:02;22.70;;;9.40;;
25125;SDS011;13106;50.808;5.670;2023-07-02T11:38:28;20.30;;;9.68;;
25125;SDS011;13106;50.808;5.670;2023-07-02T11:40:54;28.98;;;10.55;;
25125;SDS011;13106;50.808;5.670;2023-07-02T11:43:20;21.15;;;9.50;;
25125;SDS011;13106;50.808;5.670;2023-07-02T11:45:46;22.35;;;9.88;;
25125;SDS011;13106;50.808;5.670;2023-07-02T11:48:12;22.65;;;10.52;;
25125;SDS011;13106;50.808;5.670;2023-07-02T11:50:38;21.33;;;10.50;;
25125;SDS011;13106;50.808;5.670;2023-07-02T11:53:04;22.02;;;10.43;;
25125;SDS011;13106;50.808;5.670;2023-07-02T11:55:30;18.55;;;9.35;;
25125;SDS011;13106;50.808;5.670;2023-07-02T11:57:56;18.33;;;10.15;;
25125;SDS011;13106;50.808;5.670;2023-07-02T12:00:22;22.80;;;9.55;;
25125;SDS011;13106;50.808;5.670;2023-07-02T12:02:48;26.15;;;10.82;;
25125;SDS011;13106;50.808;5.670;2023-07-02T12:05:14;23.45;;;10.50;;
25125;SDS011;13106;50.808;5.670;2023-07-02T12:07:41;20.23;;;10.43;;
25125;SDS011;13106;50.808;5.670;2023-07-02T12:10:07;21.50;;;10.35;;
25125;SDS011;13106;50.808;5.670;2023-07-02T12:12:33;22.48;;;10.35;;
25125;SDS011;13106;50.808;5.670;2023-07-02T12:14:59;22.70;;;9.65;;
25125;SDS011;13106;50.808;5.670;2023-07-02T12:17:25;26.92;;;10.20;;
25125;SDS011;13106;50.808;5.670;2023-07-02T12:19:51;20.45;;;10.18;;
25125;SDS011;13106;50.808;5.670;2023-07-02T12:22:17;23.73;;;10.38;;
25125;SDS011;13106;50.808;5.670;2023-07-02T12:24:46;22.02;;;10.18;;
25125;SDS011;13106;50.808;5.670;2023-07-02T12:27:14;29.55;;;11.05;;
25125;SDS011;13106;50.808;5.670;2023-07-02T12:29:40;22.30;;;9.75;;
25125;SDS011;13106;50.808;5.670;2023-07-02T12:32:07;23.38;;;10.63;;
25125;SDS011;13106;50.808;5.670;2023-07-02T12:34:33;26.00;;;11.38;;
25125;SDS011;13106;50.808;5.670;2023-07-02T12:36:59;27.10;;;10.68;;
25125;SDS011;13106;50.808;5.670;2023-07-02T12:39:25;23.95;;;10.88;;
25125;SDS011;13106;50.808;5.670;2023-07-02T12:41:51;25.95;;;10.13;;
25125;SDS011;13106;50.808;5.670;2023-07-02T12:44:17;20.27;;;10.05;;
25125;SDS011;13106;50.808;5.670;2023-07-02T12:46:43;24.75;;;9.85;;
25125;SDS011;13106;50.808;5.670;2023-07-02T12:49:09;22.23;;;10.50;;
25125;SDS011;13106;50.808;5.670;2023-07-02T12:51:36;25.48;;;10.43;;
25125;SDS011;13106;50.808;5.670;2023-07-02T12:54:02;24.08;;;10.43;;
25125;SDS011;13106;50.808;5.670;2023-07-02T12:56:28;24.02;;;9.85;;
25125;SDS011;13106;50.808;5.670;2023-07-02T12:58:54;26.27;;;10.10;;
25125;SDS011;13106;50.808;5.670;2023-07-02T13:01:20;25.55;;;10.93;;
25125;SDS011;13106;50.808;5.670;2023-07-02T13:03:46;22.83;;;10.75;;
25125;SDS011;13106;50.808;5.670;2023-07-02T13:06:13;27.75;;;10.55;;
25125;SDS011;13106;50.808;5.670;2023-07-02T13:08:39;25.00;;;10.43;;
25125;SDS011;13106;50.808;5.670;2023-07-02T13:11:05;20.90;;;10.13;;
25125;SDS011;13106;50.808;5.670;2023-07-02T13:13:31;22.30;;;9.80;;
25125;SDS011;13106;50.808;5.670;2023-07-02T13:15:57;23.48;;;10.25;;
25125;SDS011;13106;50.808;5.670;2023-07-02T13:18:24;27.63;;;11.70;;
25125;SDS011;13106;50.808;5.670;2023-07-02T13:20:50;23.55;;;11.15;;
25125;SDS011;13106;50.808;5.670;2023-07-02T13:23:16;23.40;;;10.57;;
25125;SDS011;13106;50.808;5.670;2023-07-02T13:25:42;25.42;;;10.32;;
25125;SDS011;13106;50.808;5.670;2023-07-02T13:28:08;22.27;;;10.57;;
25125;SDS011;13106;50.808;5.670;2023-07-02T13:30:34;23.38;;;10.48;;
25125;SDS011;13106;50.808;5.670;2023-07-02T13:33:00;23.65;;;9.73;;
25125;SDS011;13106;50.808;5.670;2023-07-02T13:35:26;20.92;;;10.63;;
25125;SDS011;13106;50.808;5.670;2023-07-02T13:37:52;20.35;;;9.95;;
25125;SDS011;13106;50.808;5.670;2023-07-02T13:40:18;24.85;;;10.50;;
25125;SDS011;13106;50.808;5.670;2023-07-02T13:42:45;20.17;;;8.88;;
25125;SDS011;13106;50.808;5.670;2023-07-02T13:45:11;19.30;;;9.25;;
25125;SDS011;13106;50.808;5.670;2023-07-02T13:47:37;18.45;;;9.55;;
25125;SDS011;13106;50.808;5.670;2023-07-02T13:50:03;23.52;;;9.65;;
25125;SDS011;13106;50.808;5.670;2023-07-02T13:52:30;24.52;;;10.82;;
25125;SDS011;13106;50.808;5.670;2023-07-02T13:54:56;22.45;;;10.95;;
25125;SDS011;13106;50.808;5.670;2023-07-02T13:57:24;19.10;;;9.93;;
25125;SDS011;13106;50.808;5.670;2023-07-02T13:59:50;26.52;;;10.80;;
25125;SDS011;13106;50.808;5.670;2023-07-02T14:02:16;22.27;;;10.23;;
25125;SDS011;13106;50.808;5.670;2023-07-02T14:04:43;25.10;;;10.65;;
25125;SDS011;13106;50.808;5.670;2023-07-02T14:07:09;21.55;;;10.02;;
25125;SDS011;13106;50.808;5.670;2023-07-02T14:09:35;25.13;;;10.63;;
25125;SDS011;13106;50.808;5.670;2023-07-02T14:12:02;23.70;;;10.07;;
25125;SDS011;13106;50.808;5.670;2023-07-02T14:14:28;24.40;;;9.75;;
25125;SDS011;13106;50.808;5.670;2023-07-02T14:16:55;26.80;;;10.90;;
25125;SDS011;13106;50.808;5.670;2023-07-02T14:19:21;25.15;;;10.05;;
25125;SDS011;13106;50.808;5.670;2023-07-02T14:21:47;21.63;;;10.68;;
25125;SDS011;13106;50.808;5.670;2023-07-02T14:24:14;27.60;;;11.25;;
25125;SDS011;13106;50.808;5.670;2023-07-02T14:26:40;25.80;;;10.88;;
25125;SDS011;13106;50.808;5.670;2023-07-02T14:29:06;23.73;;;9.98;;